CheckWX is a tool to help pilots better visualize weather data.  It is not intended as a substitute for an official pre-flight weather briefing.

15:14:18 UTC

KSDB METAR
Sandberg Airport
Sandberg, California, USA
Current

21 mins ago

KSDB 261453Z AUTO 19021G31KT M1/4SM FG VV001 06/05 A2985 RMK AO2 PK WND 19031/1448 RAE01B33E50 SLP087 P0000 60001 T00560050 53009
Observed
May-26 @ 14:53 UTC
Wind
  • 190° at 21 KTS
  • Gusting to 31 KTS
Visibility
1/4 SM
Flight Rules
LIFR
Conditions
Fog
Cloud Levels
  • Vertical visibility at 100' AGL
Temperature
C / 43°F
Dewpoint
C / 41°F
Humidity
93%
Altimeter
29.85" Hg
Pressure
1010.82 hPa
Current Rain
0.01"
Previous

1 hour ago

KSDB 261353Z AUTO 19021G31KT M1/4SM -RA FG VV001 06/05 A2983 RMK AO2 PK WND 19032/1343 SLP079 P0001 T00560050
Observed
May-26 @ 13:53 UTC
Wind
  • 190° at 21 KTS
  • Gusting to 31 KTS
Visibility
1/4 SM
Flight Rules
LIFR
Conditions
Light Rain, Fog
Cloud Levels
  • Vertical visibility at 100' AGL
Temperature
C / 43°F
Dewpoint
C / 41°F
Humidity
93%
Altimeter
29.83" Hg
Pressure
1010.12 hPa
Current Rain
0.01"
Previous

2 hours ago

KSDB 261253Z AUTO 19022G32KT M1/4SM -RA FG VV001 06/05 A2981 RMK AO2 PK WND 19032/1253 SLP070 P0000 T00560050
Observed
May-26 @ 12:53 UTC
Wind
  • 190° at 22 KTS
  • Gusting to 32 KTS
Visibility
1/4 SM
Flight Rules
LIFR
Conditions
Light Rain, Fog
Cloud Levels
  • Vertical visibility at 100' AGL
Temperature
C / 43°F
Dewpoint
C / 41°F
Humidity
93%
Altimeter
29.81" Hg
Pressure
1009.52 hPa
Current Rain
0.01"